createdAt,value
2022-10-09T00:00:51.066Z,11.05
2022-10-09T00:03:18.326Z,16.63
2022-10-09T00:05:45.823Z,18.40
2022-10-09T00:08:12.765Z,13.82
2022-10-09T00:10:43.600Z,13.90
2022-10-09T00:13:11.187Z,10.68
2022-10-09T00:15:43.627Z,8.43
2022-10-09T00:18:13.559Z,17.70
2022-10-09T00:20:42.880Z,11.63
2022-10-09T00:23:10.387Z,7.32
2022-10-09T00:25:37.326Z,13.45
2022-10-09T00:28:04.952Z,26.95
2022-10-09T00:30:32.430Z,9.55
2022-10-09T00:33:01.240Z,14.13
2022-10-09T00:35:28.086Z,9.60
2022-10-09T00:37:55.007Z,8.98
2022-10-09T00:40:21.918Z,10.52
2022-10-09T00:42:56.251Z,12.68
2022-10-09T00:45:23.433Z,19.03
2022-10-09T00:47:57.767Z,9.77
2022-10-09T00:50:31.088Z,7.30
2022-10-09T00:53:00.714Z,6.93
2022-10-09T00:55:29.046Z,12.25
2022-10-09T00:57:59.434Z,10.07
2022-10-09T01:00:26.987Z,9.57
2022-10-09T01:02:54.611Z,12.32
2022-10-09T01:05:47.933Z,15.15
2022-10-09T01:08:24.548Z,10.20
2022-10-09T01:11:05.150Z,7.97
2022-10-09T01:14:17.918Z,7.25
2022-10-09T01:16:51.472Z,10.48
2022-10-09T01:19:24.429Z,7.40
2022-10-09T01:22:13.473Z,8.95
2022-10-09T01:24:52.510Z,13.85
2022-10-09T01:27:23.637Z,10.05
2022-10-09T01:30:16.813Z,9.63
2022-10-09T01:32:49.485Z,14.68
2022-10-09T01:35:17.999Z,10.73
2022-10-09T01:37:46.667Z,14.77
2022-10-09T01:40:16.884Z,5.82
2022-10-09T01:42:47.170Z,8.95
2022-10-09T01:45:15.550Z,9.90
2022-10-09T01:47:43.423Z,10.45
2022-10-09T01:50:26.101Z,9.63
2022-10-09T01:53:10.332Z,11.25
2022-10-09T01:55:52.690Z,7.35
2022-10-09T01:58:19.540Z,13.48
2022-10-09T02:01:09.753Z,17.83
2022-10-09T02:03:39.555Z,14.52
2022-10-09T02:06:09.279Z,19.70
2022-10-09T02:08:38.818Z,25.45
2022-10-09T02:11:06.774Z,25.73
2022-10-09T02:13:35.651Z,26.33
2022-10-09T02:16:38.252Z,26.00
2022-10-09T02:19:05.062Z,30.77
2022-10-09T02:21:58.005Z,40.25
2022-10-09T02:24:25.774Z,36.35
2022-10-09T02:26:55.018Z,26.00
2022-10-09T02:29:22.259Z,35.78
2022-10-09T02:31:49.307Z,15.10
2022-10-09T02:34:21.063Z,18.67
2022-10-09T02:36:48.803Z,10.27
2022-10-09T02:39:15.797Z,13.35
2022-10-09T02:41:42.674Z,12.43
2022-10-09T02:44:09.811Z,5.55
2022-10-09T02:46:38.602Z,14.02
2022-10-09T02:49:07.004Z,10.32
2022-10-09T02:51:34.177Z,13.27
2022-10-09T02:54:01.117Z,14.23
2022-10-09T02:56:29.143Z,10.73
2022-10-09T02:58:56.384Z,10.30
2022-10-09T03:01:23.847Z,12.60
2022-10-09T03:03:51.139Z,7.70
2022-10-09T03:06:21.308Z,33.40
2022-10-09T03:08:50.065Z,33.03
2022-10-09T03:11:18.717Z,34.03
2022-10-09T03:13:46.569Z,33.33
2022-10-09T03:16:17.628Z,26.00
2022-10-09T03:18:44.925Z,21.35
2022-10-09T03:21:14.420Z,23.70
2022-10-09T03:23:42.752Z,18.60
2022-10-09T03:26:12.470Z,18.10
2022-10-09T03:28:41.758Z,12.02
2022-10-09T03:31:11.280Z,13.25
2022-10-09T03:33:45.877Z,15.50
2022-10-09T03:36:12.931Z,18.13
2022-10-09T03:38:40.796Z,17.65
2022-10-09T03:41:07.957Z,6.63
2022-10-09T03:43:35.849Z,6.78
2022-10-09T03:46:08.248Z,6.30
2022-10-09T03:48:35.918Z,22.42
2022-10-09T03:51:03.331Z,19.20
2022-10-09T03:53:30.494Z,19.67
2022-10-09T03:55:57.600Z,26.10
2022-10-09T03:58:25.029Z,18.08
2022-10-09T04:00:52.966Z,13.63
2022-10-09T04:03:20.938Z,37.38
2022-10-09T04:05:48.173Z,13.60
2022-10-09T04:08:16.424Z,10.88
2022-10-09T04:10:43.383Z,19.92
2022-10-09T04:13:10.763Z,20.73
2022-10-09T04:15:37.785Z,28.50
2022-10-09T04:18:05.520Z,30.35
2022-10-09T04:20:32.673Z,23.38
2022-10-09T04:22:59.771Z,15.32
2022-10-09T04:25:26.644Z,28.95
2022-10-09T04:27:53.586Z,14.02
2022-10-09T04:30:20.558Z,23.25
2022-10-09T04:32:48.509Z,16.38
2022-10-09T04:35:16.876Z,18.05
2022-10-09T04:37:43.967Z,13.70
2022-10-09T04:40:11.038Z,17.33
2022-10-09T04:42:38.111Z,19.35
2022-10-09T04:45:05.516Z,15.40
2022-10-09T04:47:33.413Z,22.42
2022-10-09T04:50:00.262Z,18.40
2022-10-09T04:52:27.249Z,18.75
2022-10-09T04:54:54.164Z,36.67
2022-10-09T04:57:21.131Z,31.58
2022-10-09T04:59:47.985Z,30.83
2022-10-09T05:02:14.928Z,31.92
2022-10-09T05:04:41.914Z,30.10
2022-10-09T05:07:08.858Z,37.80
2022-10-09T05:09:35.746Z,33.88
2022-10-09T05:12:02.612Z,26.77
2022-10-09T05:14:29.505Z,29.27
2022-10-09T05:17:12.888Z,36.50
2022-10-09T05:19:40.814Z,33.50
2022-10-09T05:22:07.780Z,29.50
2022-10-09T05:24:34.649Z,35.75
2022-10-09T05:27:01.504Z,29.10
2022-10-09T05:29:28.471Z,26.70
2022-10-09T05:31:55.437Z,26.77
2022-10-09T05:34:22.365Z,32.83
2022-10-09T05:36:49.258Z,24.52
2022-10-09T05:39:16.695Z,29.60
2022-10-09T05:41:43.546Z,29.80
2022-10-09T05:44:11.880Z,29.48
2022-10-09T05:46:38.904Z,30.38
2022-10-09T05:49:06.464Z,21.52
2022-10-09T05:51:36.909Z,26.70
2022-10-09T05:54:04.989Z,17.02
2022-10-09T05:56:37.909Z,16.35
2022-10-09T05:59:12.023Z,18.58
2022-10-09T06:01:41.856Z,19.98
2022-10-09T06:04:13.039Z,19.13
2022-10-09T06:06:40.739Z,24.27
2022-10-09T06:09:09.223Z,19.00
2022-10-09T06:11:38.429Z,13.70
2022-10-09T06:14:08.300Z,14.00
2022-10-09T06:16:38.190Z,18.23
2022-10-09T06:19:06.448Z,15.60
2022-10-09T06:21:33.771Z,12.57
2022-10-09T06:24:02.921Z,15.60
2022-10-09T06:26:30.805Z,13.55
2022-10-09T06:28:59.005Z,13.25
2022-10-09T06:31:28.436Z,18.88
2022-10-09T06:33:56.091Z,12.80
2022-10-09T06:36:25.614Z,12.35
2022-10-09T06:38:53.197Z,11.88
2022-10-09T06:41:22.739Z,11.07
2022-10-09T06:43:52.021Z,9.48
2022-10-09T06:46:21.011Z,4.70
2022-10-09T06:48:48.386Z,10.23
2022-10-09T06:51:18.210Z,6.85
2022-10-09T06:53:50.911Z,8.00
2022-10-09T06:56:19.905Z,6.63
2022-10-09T06:58:47.410Z,10.70
2022-10-09T07:01:18.183Z,9.00
2022-10-09T07:03:47.722Z,4.57
2022-10-09T07:06:26.649Z,9.90
2022-10-09T07:08:58.812Z,4.57
2022-10-09T07:11:32.094Z,12.13
2022-10-09T07:14:01.763Z,19.30
2022-10-09T07:16:38.170Z,20.02
2022-10-09T07:19:11.321Z,2.88
2022-10-09T07:21:40.181Z,10.17
2022-10-09T07:24:07.370Z,8.60
2022-10-09T07:26:36.695Z,6.55
2022-10-09T07:29:06.078Z,7.50
2022-10-09T07:31:33.028Z,5.35
2022-10-09T07:34:00.396Z,6.43
2022-10-09T07:36:27.373Z,2.65
2022-10-09T07:38:57.064Z,3.60
2022-10-09T07:41:25.591Z,3.72
2022-10-09T07:43:53.070Z,4.88
2022-10-09T07:46:22.009Z,5.82
2022-10-09T07:48:49.806Z,2.53
2022-10-09T07:51:21.287Z,6.38
2022-10-09T07:53:48.681Z,4.95
2022-10-09T07:56:28.215Z,4.05
2022-10-09T07:58:57.937Z,5.50
2022-10-09T08:01:28.176Z,12.73
2022-10-09T08:03:56.174Z,10.57
2022-10-09T08:06:23.325Z,13.88
2022-10-09T08:08:52.281Z,4.95
2022-10-09T08:11:20.320Z,4.57
2022-10-09T08:13:49.286Z,6.18
2022-10-09T08:16:17.737Z,16.23
2022-10-09T08:18:45.087Z,11.55
2022-10-09T08:21:16.233Z,12.85
2022-10-09T08:23:43.378Z,6.03
2022-10-09T08:26:18.165Z,7.78
2022-10-09T08:28:49.473Z,6.63
2022-10-09T08:31:17.727Z,5.20
2022-10-09T08:33:44.921Z,2.78
2022-10-09T08:36:15.389Z,10.68
2022-10-09T08:38:47.977Z,10.38
2022-10-09T08:41:32.882Z,2.67
2022-10-09T08:44:09.204Z,2.53
2022-10-09T08:46:44.721Z,10.35
2022-10-09T08:49:30.438Z,7.75
2022-10-09T08:52:04.057Z,3.22
2022-10-09T08:54:35.627Z,6.28
2022-10-09T08:57:11.337Z,6.90
2022-10-09T08:59:38.311Z,3.97
2022-10-09T09:02:33.152Z,2.38
2022-10-09T09:08:00.802Z,4.95
2022-10-09T09:10:32.107Z,11.77
2022-10-09T09:13:20.831Z,5.50
2022-10-09T09:15:49.293Z,5.20
2022-10-09T09:18:26.530Z,4.78
2022-10-09T09:21:02.947Z,6.25
2022-10-09T09:23:38.201Z,7.68
2022-10-09T09:26:14.073Z,5.47
2022-10-09T09:28:42.575Z,2.22
2022-10-09T09:31:17.661Z,6.45
2022-10-09T09:34:04.560Z,4.07
2022-10-09T09:36:40.269Z,11.23
2022-10-09T09:42:13.202Z,4.72
2022-10-09T09:44:46.536Z,4.72
2022-10-09T09:47:30.383Z,4.43
2022-10-09T09:50:02.634Z,4.72
2022-10-09T09:52:35.796Z,4.20
2022-10-09T09:55:04.501Z,4.22
2022-10-09T09:57:36.643Z,10.82
2022-10-09T10:00:17.246Z,5.30
2022-10-09T10:02:44.192Z,8.20
2022-10-09T10:05:22.990Z,4.57
2022-10-09T10:07:51.555Z,5.20
2022-10-09T10:10:25.862Z,4.82
2022-10-09T10:12:53.068Z,5.50
2022-10-09T10:15:31.836Z,7.18
2022-10-09T10:18:02.256Z,4.25
2022-10-09T10:20:32.682Z,5.80
2022-10-09T10:23:00.902Z,8.10
2022-10-09T10:25:32.618Z,7.68
2022-10-09T10:28:13.339Z,4.10
2022-10-09T10:30:41.819Z,4.35
2022-10-09T10:33:21.133Z,7.22
2022-10-09T10:35:53.102Z,8.70
2022-10-09T10:38:53.774Z,7.05
2022-10-09T10:41:28.265Z,3.08
2022-10-09T10:46:49.712Z,2.35
2022-10-09T10:49:21.676Z,8.10
2022-10-09T10:52:29.970Z,3.17
2022-10-09T10:55:02.562Z,6.55
2022-10-09T10:57:55.022Z,8.63
2022-10-09T11:00:22.236Z,4.85
2022-10-09T11:03:10.072Z,4.20
2022-10-09T11:05:42.671Z,4.72
2022-10-09T11:08:39.505Z,3.58
2022-10-09T11:11:20.682Z,5.65
2022-10-09T11:14:07.351Z,7.00
2022-10-09T11:16:40.148Z,6.38
2022-10-09T11:19:28.837Z,3.45
2022-10-09T11:22:23.477Z,7.03
2022-10-09T11:25:01.236Z,5.05
2022-10-09T11:27:28.127Z,3.08
2022-10-09T11:30:03.803Z,4.82
2022-10-09T11:32:55.565Z,13.57
2022-10-09T11:35:25.101Z,7.65
2022-10-09T11:38:33.752Z,9.18
2022-10-09T11:41:05.221Z,5.63
2022-10-09T11:44:11.881Z,8.65
2022-10-09T11:47:01.953Z,4.60
2022-10-09T11:49:31.939Z,9.05
2022-10-09T11:52:15.931Z,9.15
2022-10-09T11:54:43.234Z,7.53
2022-10-09T11:57:14.981Z,6.38
2022-10-09T11:59:42.769Z,4.53
2022-10-09T12:02:24.720Z,5.32
2022-10-09T12:04:55.183Z,8.32
2022-10-09T12:07:28.460Z,8.60
2022-10-09T12:10:39.471Z,4.68
2022-10-09T12:13:07.954Z,3.95
2022-10-09T12:15:55.110Z,9.82
2022-10-09T12:18:32.464Z,5.32
2022-10-09T12:21:03.306Z,5.13
2022-10-09T12:23:35.312Z,8.25
2022-10-09T12:26:03.827Z,6.07
2022-10-09T12:28:38.145Z,6.00
2022-10-09T12:31:16.066Z,8.90
2022-10-09T12:33:48.069Z,4.30
2022-10-09T12:36:22.294Z,8.05
2022-10-09T12:38:49.315Z,5.95
2022-10-09T12:41:35.883Z,4.53
2022-10-09T12:44:06.557Z,9.07
2022-10-09T12:46:37.258Z,11.50
2022-10-09T12:49:14.389Z,11.45
2022-10-09T12:51:41.247Z,4.47
2022-10-09T12:54:10.077Z,5.80
2022-10-09T12:56:38.985Z,7.13
2022-10-09T12:59:12.180Z,5.20
2022-10-09T13:01:41.035Z,8.27
2022-10-09T13:04:21.236Z,5.78
2022-10-09T13:06:50.512Z,4.55
2022-10-09T13:09:33.400Z,7.85
2022-10-09T13:12:06.967Z,9.23
2022-10-09T13:14:40.858Z,6.22
2022-10-09T13:17:25.189Z,9.07
2022-10-09T13:19:55.629Z,9.43
2022-10-09T13:22:29.068Z,4.47
2022-10-09T13:24:58.661Z,6.15
2022-10-09T13:27:32.858Z,8.85
2022-10-09T13:30:01.709Z,5.90
2022-10-09T13:32:28.675Z,4.10
2022-10-09T13:34:55.899Z,13.10
2022-10-09T13:37:24.526Z,3.63
2022-10-09T13:39:59.368Z,6.30
2022-10-09T13:42:34.173Z,4.18
2022-10-09T13:45:01.059Z,4.15
2022-10-09T13:47:27.946Z,7.90
2022-10-09T13:49:54.825Z,6.47
2022-10-09T13:52:21.795Z,8.45
2022-10-09T13:54:48.695Z,5.53
2022-10-09T13:57:15.639Z,3.80
2022-10-09T13:59:42.656Z,6.20
2022-10-09T14:02:11.244Z,4.22
2022-10-09T14:04:38.399Z,7.10
2022-10-09T14:07:05.267Z,7.32
2022-10-09T14:09:32.194Z,8.70
2022-10-09T14:11:59.068Z,6.55
2022-10-09T14:14:26.024Z,4.15
2022-10-09T14:16:52.879Z,4.78
2022-10-09T14:19:19.828Z,9.85
2022-10-09T14:21:47.685Z,14.10
2022-10-09T14:24:15.593Z,7.32
2022-10-09T14:26:44.811Z,5.47
2022-10-09T14:29:14.297Z,8.10
2022-10-09T14:31:41.220Z,8.65
2022-10-09T14:34:08.179Z,10.27
2022-10-09T14:36:37.217Z,7.05
2022-10-09T14:39:04.258Z,14.52
2022-10-09T14:41:35.502Z,7.47
2022-10-09T14:44:04.729Z,6.68
2022-10-09T14:46:34.077Z,5.20
2022-10-09T14:49:07.350Z,4.80
2022-10-09T14:51:37.167Z,6.00
2022-10-09T14:54:05.284Z,7.00
2022-10-09T14:56:32.636Z,13.50
2022-10-09T14:59:01.115Z,7.15
2022-10-09T15:01:29.665Z,7.30
2022-10-09T15:03:56.792Z,5.85
2022-10-09T15:06:27.837Z,9.50
2022-10-09T15:08:59.255Z,8.82
2022-10-09T15:11:30.051Z,5.18
2022-10-09T15:13:57.850Z,7.55
2022-10-09T15:16:25.135Z,7.28
2022-10-09T15:18:55.656Z,8.73
2022-10-09T15:21:26.099Z,5.70
2022-10-09T15:23:57.598Z,11.75
2022-10-09T15:26:26.870Z,9.88
2022-10-09T15:28:53.887Z,10.55
2022-10-09T15:31:25.209Z,9.00
2022-10-09T15:33:53.946Z,6.97
2022-10-09T15:36:22.701Z,6.88
2022-10-09T15:38:50.257Z,14.63
2022-10-09T15:41:21.738Z,12.60
2022-10-09T15:43:49.931Z,12.25
2022-10-09T15:46:16.879Z,7.60
2022-10-09T15:48:43.917Z,9.60
2022-10-09T15:51:13.744Z,7.35
2022-10-09T15:53:45.802Z,6.22
2022-10-09T15:56:18.227Z,7.65
2022-10-09T15:58:45.201Z,8.50
2022-10-09T16:01:14.309Z,11.63
2022-10-09T16:03:42.210Z,5.88
2022-10-09T16:06:11.915Z,11.45
2022-10-09T16:08:39.457Z,5.47
2022-10-09T16:13:43.786Z,6.93
2022-10-09T16:16:15.408Z,9.70
2022-10-09T16:18:42.428Z,7.97
2022-10-09T16:21:14.030Z,12.50
2022-10-09T16:23:43.058Z,11.40
2022-10-09T16:26:11.768Z,16.65
2022-10-09T16:28:38.769Z,19.48
2022-10-09T16:31:05.959Z,13.85
2022-10-09T16:33:32.957Z,12.18
2022-10-09T16:36:13.085Z,10.68
2022-10-09T16:38:40.707Z,9.18
2022-10-09T16:41:14.835Z,9.52
2022-10-09T16:43:41.762Z,12.70
2022-10-09T16:46:11.676Z,12.93
2022-10-09T16:48:38.739Z,11.85
2022-10-09T16:51:13.641Z,10.60
2022-10-09T16:53:41.107Z,6.53
2022-10-09T16:56:15.262Z,16.58
2022-10-09T16:58:43.696Z,4.17
2022-10-09T17:01:12.159Z,6.10
2022-10-09T17:03:41.306Z,5.70
2022-10-09T17:06:10.472Z,9.68
2022-10-09T17:08:38.097Z,11.02
2022-10-09T17:11:14.607Z,9.18
2022-10-09T17:13:41.722Z,11.50
2022-10-09T17:16:17.971Z,10.05
2022-10-09T17:18:46.653Z,9.52
2022-10-09T17:21:14.923Z,14.05
2022-10-09T17:23:42.209Z,11.27
2022-10-09T17:26:12.173Z,7.55
2022-10-09T17:28:40.106Z,10.13
2022-10-09T17:31:09.765Z,9.75
2022-10-09T17:33:41.194Z,17.13
2022-10-09T17:36:09.864Z,17.58
2022-10-09T17:38:36.898Z,13.68
2022-10-09T17:41:05.544Z,12.27
2022-10-09T17:43:32.812Z,10.68
2022-10-09T17:46:00.694Z,15.82
2022-10-09T17:48:29.274Z,12.20
2022-10-09T17:50:58.402Z,8.85
2022-10-09T17:53:25.781Z,11.07
2022-10-09T17:55:54.710Z,11.27
2022-10-09T17:58:23.034Z,19.08
2022-10-09T18:00:51.010Z,10.13
2022-10-09T18:03:18.789Z,13.38
2022-10-09T18:05:48.270Z,10.95
2022-10-09T18:08:17.303Z,9.80
2022-10-09T18:10:44.393Z,13.32
2022-10-09T18:13:12.120Z,13.93
2022-10-09T18:15:43.266Z,7.78
2022-10-09T18:18:11.457Z,17.35
2022-10-09T18:20:40.972Z,13.23
2022-10-09T18:23:08.567Z,8.13
2022-10-09T18:25:40.239Z,11.73
2022-10-09T18:28:07.343Z,12.40
2022-10-09T18:30:34.488Z,9.00
2022-10-09T18:33:01.792Z,6.60
2022-10-09T18:35:30.435Z,7.35
2022-10-09T18:37:57.486Z,8.40
2022-10-09T18:40:24.407Z,9.30
2022-10-09T18:42:53.102Z,10.85
2022-10-09T18:45:20.422Z,7.45
2022-10-09T18:47:47.504Z,4.93
2022-10-09T18:50:16.106Z,12.50
2022-10-09T18:52:44.131Z,11.45
2022-10-09T18:55:14.984Z,17.55
2022-10-09T18:57:42.434Z,6.57
2022-10-09T19:00:10.166Z,9.70
2022-10-09T19:02:37.167Z,11.70
2022-10-09T19:05:04.310Z,9.45
2022-10-09T19:07:31.258Z,12.43
2022-10-09T19:09:58.144Z,10.25
2022-10-09T19:12:25.685Z,6.95
2022-10-09T19:14:52.972Z,6.30
2022-10-09T19:17:19.971Z,7.53
2022-10-09T19:19:46.879Z,10.88
2022-10-09T19:22:16.555Z,11.73
2022-10-09T19:24:44.700Z,10.77
2022-10-09T19:27:11.767Z,5.43
2022-10-09T19:29:38.830Z,6.18
2022-10-09T19:32:05.887Z,8.82
2022-10-09T19:34:32.746Z,18.83
2022-10-09T19:36:59.764Z,16.20
2022-10-09T19:39:27.957Z,16.05
2022-10-09T19:41:54.958Z,7.95
2022-10-09T19:44:21.910Z,9.48
2022-10-09T19:46:48.893Z,8.27
2022-10-09T19:49:16.629Z,15.63
2022-10-09T19:51:43.857Z,14.43
2022-10-09T19:54:11.025Z,14.70
2022-10-09T19:56:39.668Z,14.82
2022-10-09T19:59:08.668Z,12.65
2022-10-09T20:01:37.738Z,11.48
2022-10-09T20:04:07.896Z,11.20
2022-10-09T20:06:40.940Z,13.38
2022-10-09T20:09:09.404Z,9.20
2022-10-09T20:11:36.950Z,10.25
2022-10-09T20:14:04.579Z,10.15
2022-10-09T20:16:32.310Z,9.70
2022-10-09T20:19:04.878Z,12.07
2022-10-09T20:21:33.622Z,12.00
2022-10-09T20:24:01.480Z,8.68
2022-10-09T20:26:31.580Z,14.50
2022-10-09T20:28:58.848Z,11.15
2022-10-09T20:31:27.028Z,13.75
2022-10-09T20:33:55.081Z,10.32
2022-10-09T20:36:25.633Z,8.50
2022-10-09T20:39:00.663Z,17.30
2022-10-09T20:41:30.121Z,15.38
2022-10-09T20:43:59.616Z,13.70
2022-10-09T20:46:29.328Z,10.40
2022-10-09T20:48:56.343Z,11.23
2022-10-09T20:51:23.942Z,5.93
2022-10-09T20:53:59.221Z,8.98
2022-10-09T20:56:29.275Z,18.52
2022-10-09T20:58:56.959Z,7.95
2022-10-09T21:01:24.025Z,6.20
2022-10-09T21:03:51.741Z,9.35
2022-10-09T21:06:21.407Z,8.10
2022-10-09T21:08:48.427Z,5.82
2022-10-09T21:11:17.550Z,11.30
2022-10-09T21:13:45.872Z,7.53
2022-10-09T21:16:15.415Z,12.57
2022-10-09T21:18:42.311Z,13.50
2022-10-09T21:21:12.317Z,6.50
2022-10-09T21:23:39.939Z,8.52
2022-10-09T21:26:12.318Z,7.53
2022-10-09T21:28:39.297Z,10.45
2022-10-09T21:31:18.399Z,8.38
2022-10-09T21:33:46.422Z,7.55
2022-10-09T21:36:34.631Z,16.73
2022-10-09T21:39:02.427Z,8.85
2022-10-09T21:41:29.396Z,16.58
2022-10-09T21:43:56.459Z,12.35
2022-10-09T21:46:23.887Z,15.23
2022-10-09T21:48:50.895Z,10.73
2022-10-09T21:51:17.897Z,14.23
2022-10-09T21:53:44.844Z,11.90
2022-10-09T21:56:11.950Z,8.05
2022-10-09T21:58:40.393Z,10.05
2022-10-09T22:01:07.675Z,17.25
2022-10-09T22:03:36.789Z,15.40
2022-10-09T22:06:06.999Z,16.90
2022-10-09T22:08:34.656Z,17.75
2022-10-09T22:11:05.205Z,16.40
2022-10-09T22:13:32.224Z,18.23
2022-10-09T22:15:59.117Z,12.10
2022-10-09T22:18:26.054Z,14.18
2022-10-09T22:20:53.016Z,20.77
2022-10-09T22:23:20.954Z,14.68
2022-10-09T22:25:59.702Z,16.55
2022-10-09T22:28:26.674Z,18.95
2022-10-09T22:31:06.535Z,15.25
2022-10-09T22:33:34.838Z,20.95
2022-10-09T22:36:16.012Z,15.20
2022-10-09T22:38:44.179Z,21.35
2022-10-09T22:41:16.872Z,12.65
2022-10-09T22:43:46.870Z,14.20
2022-10-09T22:46:17.548Z,22.00
2022-10-09T22:48:45.033Z,14.95
2022-10-09T22:51:15.484Z,14.10
2022-10-09T22:53:43.531Z,19.45
2022-10-09T22:56:14.255Z,18.05
2022-10-09T22:58:41.132Z,18.60
2022-10-09T23:01:15.316Z,17.38
2022-10-09T23:03:42.269Z,15.63
2022-10-09T23:06:17.846Z,25.33
2022-10-09T23:08:46.570Z,24.83
2022-10-09T23:11:14.779Z,23.23
2022-10-09T23:13:41.740Z,19.95
2022-10-09T23:16:11.489Z,14.85
2022-10-09T23:18:39.571Z,16.55
2022-10-09T23:21:09.775Z,13.63
2022-10-09T23:23:36.745Z,16.05
2022-10-09T23:26:12.413Z,13.55
2022-10-09T23:28:39.773Z,12.00
2022-10-09T23:31:14.661Z,27.17
2022-10-09T23:33:43.837Z,22.60
2022-10-09T23:36:14.375Z,14.60
2022-10-09T23:38:41.945Z,22.10
2022-10-09T23:41:13.273Z,15.40
2022-10-09T23:43:41.764Z,19.63
2022-10-09T23:46:13.709Z,16.25
2022-10-09T23:48:40.803Z,17.00
2022-10-09T23:51:08.165Z,15.88
2022-10-09T23:53:35.703Z,11.45
2022-10-09T23:56:17.303Z,16.02
2022-10-09T23:58:44.897Z,13.60
